createdAt,value
2018-11-23T00:01:11.049Z,1.00
2018-11-23T00:03:39.173Z,1.10
2018-11-23T00:06:07.289Z,1.20
2018-11-23T00:08:35.433Z,1.30
2018-11-23T00:11:03.605Z,1.10
2018-11-23T00:13:31.729Z,1.40
2018-11-23T00:15:59.849Z,1.10
2018-11-23T00:18:27.968Z,1.10
2018-11-23T00:20:56.081Z,1.10
2018-11-23T00:23:24.229Z,1.20
2018-11-23T00:25:52.387Z,1.10
2018-11-23T00:28:20.514Z,1.10
2018-11-23T00:30:48.633Z,1.10
2018-11-23T00:33:16.737Z,1.10
2018-11-23T00:35:44.857Z,1.20
2018-11-23T00:38:12.983Z,1.20
2018-11-23T00:40:41.117Z,1.10
2018-11-23T00:43:09.237Z,1.20
2018-11-23T00:45:42.777Z,1.00
2018-11-23T00:48:05.505Z,1.00
2018-11-23T00:50:33.637Z,1.30
2018-11-23T00:53:01.802Z,1.00
2018-11-23T00:55:30.343Z,1.00
2018-11-23T00:57:58.487Z,1.10
2018-11-23T01:00:28.669Z,1.20
2018-11-23T01:02:57.648Z,1.10
2018-11-23T01:05:25.766Z,1.10
2018-11-23T01:07:54.026Z,1.20
2018-11-23T01:10:23.269Z,1.10
2018-11-23T01:12:52.561Z,1.20
2018-11-23T01:15:20.697Z,1.30
2018-11-23T01:17:48.853Z,1.00
2018-11-23T01:20:19.448Z,1.20
2018-11-23T01:22:48.038Z,1.50
2018-11-23T01:25:17.126Z,1.20
2018-11-23T01:27:46.342Z,1.50
2018-11-23T01:30:19.893Z,1.60
2018-11-23T01:32:48.017Z,1.20
2018-11-23T01:35:16.219Z,1.30
2018-11-23T01:37:44.462Z,1.20
2018-11-23T01:40:15.074Z,1.20
2018-11-23T01:42:43.189Z,1.20
2018-11-23T01:45:11.846Z,1.40
2018-11-23T01:47:39.969Z,1.30
2018-11-23T01:50:14.245Z,1.20
2018-11-23T01:52:43.097Z,1.60
2018-11-23T01:55:12.207Z,1.50
2018-11-23T01:57:41.101Z,1.30
2018-11-23T02:00:11.540Z,1.40
2018-11-23T02:02:39.730Z,1.20
2018-11-23T02:05:08.600Z,1.50
2018-11-23T02:07:37.201Z,1.40
2018-11-23T02:10:05.873Z,1.30
2018-11-23T02:12:34.235Z,1.40
2018-11-23T02:15:02.365Z,1.50
2018-11-23T02:17:30.581Z,1.20
2018-11-23T02:19:58.751Z,1.40
2018-11-23T02:22:27.762Z,1.50
2018-11-23T02:24:55.920Z,1.40
2018-11-23T02:27:24.429Z,1.40
2018-11-23T02:29:52.705Z,1.40
2018-11-23T02:32:20.841Z,1.30
2018-11-23T02:34:48.986Z,1.40
2018-11-23T02:37:17.219Z,1.50
2018-11-23T02:39:45.361Z,1.30
2018-11-23T02:42:13.551Z,1.50
2018-11-23T02:44:41.712Z,1.20
2018-11-23T02:47:09.885Z,1.40
2018-11-23T02:49:38.385Z,1.50
2018-11-23T02:52:06.546Z,1.50
2018-11-23T02:54:34.792Z,1.40
2018-11-23T02:57:02.966Z,1.50
2018-11-23T02:59:31.113Z,1.40
2018-11-23T03:01:59.265Z,1.70
2018-11-23T03:04:27.442Z,1.70
2018-11-23T03:06:55.640Z,1.40
2018-11-23T03:09:23.777Z,1.30
2018-11-23T03:11:51.955Z,1.40
2018-11-23T03:14:20.126Z,1.30
2018-11-23T03:16:48.313Z,1.20
2018-11-23T03:19:16.977Z,1.60
2018-11-23T03:21:45.172Z,1.30
2018-11-23T03:24:13.325Z,1.40
2018-11-23T03:26:41.505Z,1.50
2018-11-23T03:29:09.641Z,1.40
2018-11-23T03:31:37.798Z,1.40
2018-11-23T03:34:06.754Z,1.40
2018-11-23T03:36:34.877Z,1.70
2018-11-23T03:39:03.123Z,1.70
2018-11-23T03:41:31.237Z,1.70
2018-11-23T03:43:59.387Z,1.50
2018-11-23T03:46:27.548Z,1.70
2018-11-23T03:48:55.655Z,1.60
2018-11-23T03:51:23.795Z,1.50
2018-11-23T03:53:51.969Z,1.50
2018-11-23T03:56:20.101Z,1.50
2018-11-23T03:58:48.238Z,1.40
2018-11-23T04:01:16.361Z,1.50
2018-11-23T04:03:44.517Z,1.30
2018-11-23T04:06:12.626Z,1.40
2018-11-23T04:08:40.769Z,1.50
2018-11-23T04:11:08.925Z,1.50
2018-11-23T04:13:37.029Z,1.40
2018-11-23T04:16:05.230Z,1.40
2018-11-23T04:18:33.382Z,1.40
2018-11-23T04:21:02.570Z,1.40
2018-11-23T04:23:31.993Z,1.60
2018-11-23T04:26:00.201Z,1.70
2018-11-23T04:28:28.341Z,1.40
2018-11-23T04:30:56.597Z,1.40
2018-11-23T04:33:25.166Z,1.30
2018-11-23T04:35:53.321Z,1.50
2018-11-23T04:38:21.615Z,1.50
2018-11-23T04:40:49.773Z,1.30
2018-11-23T04:43:17.930Z,1.80
2018-11-23T04:45:46.066Z,1.40
2018-11-23T04:48:14.253Z,1.70
2018-11-23T04:50:42.371Z,1.30
2018-11-23T04:53:10.496Z,1.50
2018-11-23T04:55:39.725Z,1.40
2018-11-23T04:58:07.879Z,1.30
2018-11-23T05:00:36.049Z,1.20
2018-11-23T05:03:04.191Z,1.20
2018-11-23T05:05:32.338Z,1.00
2018-11-23T05:08:00.469Z,1.10
2018-11-23T05:10:28.599Z,0.80
2018-11-23T05:12:56.721Z,0.60
2018-11-23T05:15:24.847Z,0.50
2018-11-23T05:17:53.046Z,0.50
2018-11-23T05:20:21.201Z,0.50
2018-11-23T05:22:49.369Z,0.60
2018-11-23T05:25:18.459Z,0.80
2018-11-23T05:27:47.134Z,0.60
2018-11-23T05:30:17.562Z,0.40
2018-11-23T05:32:46.292Z,0.60
2018-11-23T05:35:15.337Z,0.50
2018-11-23T05:37:43.493Z,0.70
2018-11-23T05:40:13.630Z,0.40
2018-11-23T05:42:42.332Z,0.40
2018-11-23T05:45:12.869Z,0.30
2018-11-23T05:47:41.005Z,0.30
2018-11-23T05:50:13.546Z,0.30
2018-11-23T05:52:42.409Z,0.60
2018-11-23T05:55:10.965Z,0.60
2018-11-23T05:57:39.157Z,0.90
2018-11-23T06:00:10.801Z,0.90
2018-11-23T06:02:38.953Z,0.90
2018-11-23T06:05:07.757Z,0.80
2018-11-23T06:07:36.084Z,1.30
2018-11-23T06:10:04.984Z,1.00
2018-11-23T06:12:33.198Z,1.10
2018-11-23T06:15:01.385Z,1.10
2018-11-23T06:17:29.525Z,1.40
2018-11-23T06:19:57.678Z,1.10
2018-11-23T06:22:25.836Z,1.30
2018-11-23T06:24:53.973Z,1.40
2018-11-23T06:27:22.153Z,1.20
2018-11-23T06:29:50.407Z,1.40
2018-11-23T06:32:30.681Z,1.40
2018-11-23T06:34:58.817Z,1.40
2018-11-23T06:37:27.025Z,1.70
2018-11-23T06:39:55.253Z,1.60
2018-11-23T06:42:23.406Z,1.70
2018-11-23T06:44:51.534Z,1.60
2018-11-23T06:47:19.694Z,1.70
2018-11-23T06:49:47.869Z,1.50
2018-11-23T06:52:16.093Z,1.70
2018-11-23T06:54:44.273Z,1.60
2018-11-23T06:57:12.405Z,1.70
2018-11-23T06:59:40.633Z,1.50
2018-11-23T07:02:08.765Z,1.70
2018-11-23T07:04:36.954Z,1.50
2018-11-23T07:07:05.233Z,1.70
2018-11-23T07:09:33.393Z,1.70
2018-11-23T07:12:01.532Z,1.70
2018-11-23T07:14:29.678Z,1.70
2018-11-23T07:16:57.806Z,1.50
2018-11-23T07:19:26.290Z,1.60
2018-11-23T07:21:54.430Z,1.70
2018-11-23T07:24:22.578Z,1.80
2018-11-23T07:26:50.710Z,1.60
2018-11-23T07:29:18.884Z,1.80
2018-11-23T07:31:47.068Z,1.80
2018-11-23T07:34:15.257Z,1.90
2018-11-23T07:36:43.426Z,1.70
2018-11-23T07:39:22.937Z,1.70
2018-11-23T07:42:02.529Z,1.70
2018-11-23T07:44:30.709Z,1.70
2018-11-23T07:46:58.837Z,2.00
2018-11-23T07:49:26.973Z,1.90
2018-11-23T07:51:55.177Z,1.90
2018-11-23T07:54:23.333Z,1.90
2018-11-23T07:56:51.490Z,1.90
2018-11-23T07:59:19.623Z,2.00
2018-11-23T08:01:48.338Z,2.00
2018-11-23T08:04:16.450Z,1.90
2018-11-23T08:06:44.594Z,1.90
2018-11-23T08:09:12.717Z,2.20
2018-11-23T08:11:40.866Z,2.10
2018-11-23T08:14:09.127Z,2.40
2018-11-23T08:16:37.299Z,2.20
2018-11-23T08:19:05.478Z,2.30
2018-11-23T08:21:33.792Z,2.30
2018-11-23T08:24:02.851Z,2.60
2018-11-23T08:26:30.996Z,2.30
2018-11-23T08:28:59.741Z,2.40
2018-11-23T08:31:27.951Z,2.40
2018-11-23T08:33:56.174Z,2.40
2018-11-23T08:36:24.315Z,2.50
2018-11-23T08:38:52.442Z,2.20
2018-11-23T08:41:20.561Z,2.50
2018-11-23T08:43:48.746Z,2.40
2018-11-23T08:46:16.924Z,2.60
2018-11-23T08:48:45.053Z,2.60
2018-11-23T08:51:13.485Z,2.50
2018-11-23T08:53:41.613Z,2.50
2018-11-23T08:56:09.786Z,2.40
2018-11-23T08:58:37.969Z,2.50
2018-11-23T09:01:06.134Z,2.40
2018-11-23T09:03:34.319Z,2.70
2018-11-23T09:06:02.793Z,3.00
2018-11-23T09:08:30.973Z,3.10
2018-11-23T09:10:59.153Z,2.90
2018-11-23T09:13:27.310Z,3.00
2018-11-23T09:15:55.478Z,3.00
2018-11-23T09:18:23.627Z,3.30
2018-11-23T09:20:51.785Z,3.50
2018-11-23T09:23:19.938Z,3.60
2018-11-23T09:25:48.034Z,3.40
2018-11-23T09:28:16.179Z,3.70
2018-11-23T09:30:44.405Z,3.50
2018-11-23T09:33:12.558Z,3.40
2018-11-23T09:35:40.690Z,3.70
2018-11-23T09:38:08.913Z,3.80
2018-11-23T09:40:42.970Z,3.70
2018-11-23T09:43:14.221Z,3.40
2018-11-23T09:45:42.355Z,3.50
2018-11-23T09:48:10.554Z,3.90
2018-11-23T09:50:38.681Z,3.80
2018-11-23T09:53:06.905Z,3.80
2018-11-23T09:55:36.157Z,4.00
2018-11-23T09:58:04.322Z,4.00
2018-11-23T10:00:34.867Z,3.90
2018-11-23T10:03:02.613Z,4.00
2018-11-23T10:05:31.538Z,4.10
2018-11-23T10:08:01.130Z,4.10
2018-11-23T10:10:29.685Z,4.30
2018-11-23T10:12:57.849Z,4.00
2018-11-23T10:15:27.186Z,4.10
2018-11-23T10:17:55.366Z,4.10
2018-11-23T10:20:24.994Z,4.20
2018-11-23T10:22:53.277Z,4.10
2018-11-23T10:25:22.739Z,4.20
2018-11-23T10:27:51.329Z,4.50
2018-11-23T10:30:22.753Z,4.60
2018-11-23T10:32:52.077Z,4.30
2018-11-23T10:35:20.218Z,4.50
2018-11-23T10:37:50.899Z,4.60
2018-11-23T10:40:21.398Z,4.50
2018-11-23T10:42:49.646Z,4.60
2018-11-23T10:45:19.905Z,4.90
2018-11-23T10:47:48.526Z,4.60
2018-11-23T10:50:19.007Z,4.80
2018-11-23T10:52:47.217Z,4.80
2018-11-23T10:55:17.441Z,4.80
2018-11-23T10:57:45.848Z,4.80
2018-11-23T11:00:20.534Z,4.80
2018-11-23T11:02:54.618Z,4.70
2018-11-23T11:05:28.157Z,4.90
2018-11-23T11:07:57.765Z,4.80
2018-11-23T11:10:29.074Z,4.90
2018-11-23T11:12:57.286Z,5.00
2018-11-23T11:15:25.486Z,4.60
2018-11-23T11:17:53.673Z,4.60
2018-11-23T11:20:21.882Z,4.40
2018-11-23T11:22:50.226Z,4.50
2018-11-23T11:25:18.377Z,4.30
2018-11-23T11:27:46.674Z,4.60
2018-11-23T11:30:16.306Z,4.60
2018-11-23T11:32:45.094Z,4.40
2018-11-23T11:35:13.601Z,4.80
2018-11-23T11:37:42.281Z,5.00
2018-11-23T11:40:12.297Z,4.90
2018-11-23T11:42:40.993Z,4.90
2018-11-23T11:45:12.155Z,4.70
2018-11-23T11:47:40.540Z,4.80
2018-11-23T11:50:10.030Z,4.80
2018-11-23T11:52:39.669Z,5.00
2018-11-23T11:55:09.337Z,4.90
2018-11-23T11:57:37.529Z,4.90
2018-11-23T12:00:07.950Z,4.70
2018-11-23T12:02:36.193Z,4.90
2018-11-23T12:05:05.045Z,5.00
2018-11-23T12:07:33.173Z,4.60
2018-11-23T12:10:06.474Z,4.60
2018-11-23T12:12:34.669Z,4.50
2018-11-23T12:15:02.786Z,4.50
2018-11-23T12:17:30.906Z,4.60
2018-11-23T12:19:59.067Z,4.40
2018-11-23T12:22:27.193Z,4.50
2018-11-23T12:24:55.586Z,4.50
2018-11-23T12:27:23.717Z,4.60
2018-11-23T12:29:51.924Z,4.60
2018-11-23T12:32:20.029Z,4.50
2018-11-23T12:34:48.167Z,4.70
2018-11-23T12:37:16.393Z,4.60
2018-11-23T12:39:44.577Z,4.70
2018-11-23T12:42:12.753Z,4.40
2018-11-23T12:44:40.941Z,4.40
2018-11-23T12:47:09.164Z,4.70
2018-11-23T12:49:37.350Z,4.40
2018-11-23T12:52:05.561Z,4.20
2018-11-23T12:54:33.750Z,4.50
2018-11-23T12:57:01.995Z,4.40
2018-11-23T12:59:30.169Z,4.60
2018-11-23T13:01:58.369Z,4.70
2018-11-23T13:04:26.506Z,4.50
2018-11-23T13:06:54.878Z,4.60
2018-11-23T13:09:23.021Z,4.60
2018-11-23T13:11:51.189Z,4.70
2018-11-23T13:14:19.408Z,4.60
2018-11-23T13:16:47.545Z,4.50
2018-11-23T13:19:15.758Z,4.60
2018-11-23T13:21:45.114Z,4.70
2018-11-23T13:24:13.284Z,4.60
2018-11-23T13:26:41.465Z,4.60
2018-11-23T13:29:16.025Z,4.70
2018-11-23T13:31:37.830Z,4.60
2018-11-23T13:34:06.585Z,4.90
2018-11-23T13:36:34.766Z,4.60
2018-11-23T13:39:03.042Z,4.50
2018-11-23T13:41:31.262Z,4.30
2018-11-23T13:43:59.422Z,4.50
2018-11-23T13:46:27.581Z,4.30
2018-11-23T13:48:55.760Z,4.20
2018-11-23T13:51:23.941Z,4.20
2018-11-23T13:53:52.197Z,4.20
2018-11-23T13:56:20.428Z,4.20
2018-11-23T13:58:48.597Z,4.30
2018-11-23T14:01:16.790Z,4.60
2018-11-23T14:03:44.950Z,4.60
2018-11-23T14:06:13.125Z,4.50
2018-11-23T14:08:41.292Z,4.30
2018-11-23T14:11:09.487Z,4.10
2018-11-23T14:13:37.649Z,4.10
2018-11-23T14:16:06.293Z,3.70
2018-11-23T14:18:34.450Z,3.50
2018-11-23T14:21:02.661Z,3.60
2018-11-23T14:23:30.841Z,3.50
2018-11-23T14:42:27.329Z,2.80
2018-11-23T14:44:55.650Z,1.80
2018-11-23T14:47:24.077Z,1.30
2018-11-23T14:51:16.931Z,1.70
2018-11-23T14:53:47.953Z,1.30
2018-11-23T14:58:35.921Z,1.20
2018-11-23T15:01:04.143Z,1.00
2018-11-23T15:03:32.319Z,1.00
2018-11-23T15:06:00.494Z,0.70
2018-11-23T15:08:29.224Z,0.80
2018-11-23T15:10:57.377Z,1.00
2018-11-23T15:13:25.539Z,1.00
2018-11-23T15:15:53.730Z,1.20
2018-11-23T15:18:21.886Z,1.10
2018-11-23T15:20:50.059Z,0.90
2018-11-23T15:23:19.518Z,0.80
2018-11-23T15:25:48.725Z,1.00
2018-11-23T15:28:16.917Z,0.90
2018-11-23T15:30:45.781Z,0.90
2018-11-23T15:33:15.434Z,0.90
2018-11-23T15:35:43.933Z,0.90
2018-11-23T15:38:13.849Z,0.80
2018-11-23T15:40:41.995Z,0.90
2018-11-23T15:43:11.776Z,0.70
2018-11-23T15:45:39.901Z,0.80
2018-11-23T15:48:08.645Z,0.80
2018-11-23T15:50:38.041Z,0.50
2018-11-23T15:53:09.477Z,0.70
2018-11-23T15:55:38.622Z,0.60
2018-11-23T15:58:08.405Z,0.40
2018-11-23T16:00:38.089Z,0.40
2018-11-23T16:03:08.537Z,0.20
2018-11-23T16:05:36.699Z,0.10
2018-11-23T16:08:07.662Z,0.10
2018-11-23T16:10:38.466Z,-0.20
2018-11-23T16:13:16.913Z,-0.30
2018-11-23T16:15:46.138Z,-0.20
2018-11-23T16:18:24.636Z,-0.40
2018-11-23T16:20:54.101Z,-0.30
2018-11-23T16:23:23.317Z,-0.30
2018-11-23T16:25:52.193Z,-0.30
2018-11-23T16:28:21.519Z,-0.50
2018-11-23T16:30:52.110Z,-0.50
2018-11-23T16:33:21.603Z,-0.40
2018-11-23T16:35:49.825Z,-0.70
2018-11-23T16:38:19.437Z,-0.70
2018-11-23T16:40:49.169Z,-0.90
2018-11-23T16:43:17.426Z,-0.80
2018-11-23T16:45:46.937Z,-1.10
2018-11-23T16:48:15.717Z,-1.40
2018-11-23T16:50:44.513Z,-1.40
2018-11-23T16:53:12.706Z,-1.30
2018-11-23T16:55:40.861Z,-1.00
2018-11-23T16:58:10.827Z,-0.90
2018-11-23T17:00:39.863Z,-1.30
2018-11-23T17:03:10.179Z,-1.40
2018-11-23T17:05:41.146Z,-1.20
2018-11-23T17:08:09.582Z,-1.60
2018-11-23T17:10:37.720Z,-1.10
2018-11-23T17:13:05.873Z,-1.30
2018-11-23T17:15:33.986Z,-1.60
2018-11-23T17:18:02.096Z,-1.40
2018-11-23T17:20:31.486Z,-1.40
2018-11-23T17:23:00.873Z,-1.30
2018-11-23T17:25:29.941Z,-1.10
2018-11-23T17:27:59.306Z,-1.20
2018-11-23T17:30:28.685Z,-1.60
2018-11-23T17:32:56.993Z,-1.30
2018-11-23T17:35:25.294Z,-1.60
2018-11-23T17:37:53.438Z,-1.60
2018-11-23T17:40:23.009Z,-1.70
2018-11-23T17:42:51.203Z,-1.50
2018-11-23T17:45:21.206Z,-1.50
2018-11-23T17:47:49.801Z,-1.40
2018-11-23T17:50:19.227Z,-1.40
2018-11-23T17:52:47.873Z,-1.40
2018-11-23T17:55:15.998Z,-1.40
2018-11-23T17:57:44.841Z,-1.60
2018-11-23T18:00:14.537Z,-1.70
2018-11-23T18:02:43.243Z,-1.40
2018-11-23T18:05:12.425Z,-1.80
2018-11-23T18:07:40.573Z,-1.60
2018-11-23T18:10:10.837Z,-1.40
2018-11-23T18:12:38.964Z,-1.60
2018-11-23T18:15:09.873Z,-1.90
2018-11-23T18:17:38.003Z,-1.50
2018-11-23T18:20:09.773Z,-1.50
2018-11-23T18:22:38.050Z,-1.50
2018-11-23T18:25:08.379Z,-1.70
2018-11-23T18:27:36.538Z,-1.60
2018-11-23T18:30:05.407Z,-1.70
2018-11-23T18:32:33.545Z,-2.20
2018-11-23T18:35:01.693Z,-1.90
2018-11-23T18:37:29.853Z,-2.10
2018-11-23T18:39:58.001Z,-2.00
2018-11-23T18:42:26.134Z,-2.20
2018-11-23T18:44:54.282Z,-2.30
2018-11-23T18:47:22.434Z,-2.30
2018-11-23T18:49:50.590Z,-2.30
2018-11-23T18:52:18.725Z,-1.80
2018-11-23T18:54:46.874Z,-2.20
2018-11-23T18:57:15.029Z,-2.10
2018-11-23T18:59:43.163Z,-2.00
2018-11-23T19:02:11.301Z,-2.20
2018-11-23T19:04:39.454Z,-2.30
2018-11-23T19:07:08.618Z,-2.00
2018-11-23T19:09:35.747Z,-2.00
2018-11-23T19:12:03.885Z,-2.30
2018-11-23T19:14:32.062Z,-2.30
2018-11-23T19:17:00.194Z,-2.20
2018-11-23T19:19:28.345Z,-2.30
2018-11-23T19:21:56.492Z,-2.40
2018-11-23T19:24:24.629Z,-2.10
2018-11-23T19:26:52.778Z,-2.30
2018-11-23T19:29:20.933Z,-2.20
2018-11-23T19:31:49.049Z,-2.30
2018-11-23T19:34:17.966Z,-2.30
2018-11-23T19:36:46.081Z,-2.10
2018-11-23T19:39:14.222Z,-2.20
2018-11-23T19:41:42.324Z,-2.40
2018-11-23T19:44:10.442Z,-2.40
2018-11-23T19:46:38.565Z,-2.30
2018-11-23T19:49:06.681Z,-2.30
2018-11-23T19:51:34.789Z,-2.20
2018-11-23T19:54:02.926Z,-2.30
2018-11-23T19:56:31.041Z,-2.50
2018-11-23T19:58:59.157Z,-2.30
2018-11-23T20:01:27.267Z,-2.40
2018-11-23T20:03:55.381Z,-2.40
2018-11-23T20:06:23.492Z,-2.10
2018-11-23T20:08:51.623Z,-2.30
2018-11-23T20:11:19.724Z,-2.50
2018-11-23T20:13:47.825Z,-2.10
2018-11-23T20:16:15.929Z,-2.20
2018-11-23T20:18:44.043Z,-2.30
2018-11-23T20:21:12.137Z,-2.30
2018-11-23T20:23:40.249Z,-2.40
2018-11-23T20:26:08.346Z,-2.30
2018-11-23T20:28:36.497Z,-2.30
2018-11-23T20:31:04.965Z,-2.10
2018-11-23T20:33:33.117Z,-2.20
2018-11-23T20:36:01.274Z,-2.10
2018-11-23T20:38:29.409Z,-2.10
2018-11-23T20:40:57.533Z,-2.40
2018-11-23T20:43:25.666Z,-2.20
2018-11-23T20:45:53.809Z,-2.10
2018-11-23T20:48:21.945Z,-2.40
2018-11-23T20:50:50.097Z,-2.30
2018-11-23T20:53:18.237Z,-2.50
2018-11-23T20:55:46.385Z,-2.10
2018-11-23T20:58:14.517Z,-2.50
2018-11-23T21:00:42.665Z,-2.70
2018-11-23T21:03:10.835Z,-2.70
2018-11-23T21:05:38.990Z,-2.70
2018-11-23T21:08:07.109Z,-2.70
2018-11-23T21:10:35.885Z,-2.50
2018-11-23T21:13:04.095Z,-2.50
2018-11-23T21:15:32.339Z,-2.70
2018-11-23T21:18:01.855Z,-2.60
2018-11-23T21:20:29.919Z,-2.70
2018-11-23T21:22:58.052Z,-2.50
2018-11-23T21:25:26.216Z,-2.60
2018-11-23T21:27:54.476Z,-2.70
2018-11-23T21:30:23.418Z,-2.70
2018-11-23T21:32:52.402Z,-2.70
2018-11-23T21:35:20.556Z,-2.80
2018-11-23T21:37:48.647Z,-2.70
2018-11-23T21:40:16.921Z,-2.50
2018-11-23T21:42:45.045Z,-2.50
2018-11-23T21:45:17.162Z,-2.60
2018-11-23T21:47:45.289Z,-2.60
2018-11-23T21:50:16.238Z,-2.20
2018-11-23T21:52:44.357Z,-2.10
2018-11-23T21:55:14.780Z,-2.20
2018-11-23T21:57:42.892Z,-2.00
2018-11-23T22:00:12.255Z,-2.00
2018-11-23T22:02:40.354Z,-2.10
2018-11-23T22:05:08.676Z,-1.90
2018-11-23T22:07:36.787Z,-2.30
2018-11-23T22:10:23.390Z,-2.20
2018-11-23T22:12:51.493Z,-2.40
2018-11-23T22:15:20.761Z,-2.50
2018-11-23T22:17:49.530Z,-2.60
2018-11-23T22:20:18.950Z,-2.60
2018-11-23T22:22:47.054Z,-2.60
2018-11-23T22:25:16.214Z,-2.60
2018-11-23T22:27:44.484Z,-2.60
2018-11-23T22:30:20.045Z,-2.70
2018-11-23T22:32:48.180Z,-2.60
2018-11-23T22:35:16.329Z,-2.70
2018-11-23T22:37:44.505Z,-2.80
2018-11-23T22:40:14.568Z,-2.80
2018-11-23T22:42:44.073Z,-2.60
2018-11-23T22:45:12.992Z,-2.80
2018-11-23T22:47:41.128Z,-2.90
2018-11-23T22:50:11.561Z,-2.60
2018-11-23T22:52:39.708Z,-2.50
2018-11-23T22:55:09.242Z,-2.70
2018-11-23T22:57:37.569Z,-2.40
2018-11-23T23:00:22.772Z,-2.60
2018-11-23T23:02:50.941Z,-2.60
2018-11-23T23:05:22.341Z,-2.60
2018-11-23T23:07:50.492Z,-2.60
2018-11-23T23:10:18.662Z,-2.60
2018-11-23T23:12:46.896Z,-2.70
2018-11-23T23:15:15.038Z,-2.60
2018-11-23T23:17:43.205Z,-2.50
2018-11-23T23:20:13.306Z,-2.70
2018-11-23T23:22:41.432Z,-2.40
2018-11-23T23:25:10.697Z,-2.60
2018-11-23T23:27:38.823Z,-2.60
2018-11-23T23:30:10.301Z,-2.70
2018-11-23T23:32:38.706Z,-2.50
2018-11-23T23:35:07.875Z,-2.50
2018-11-23T23:37:36.105Z,-2.50
2018-11-23T23:40:06.369Z,-2.50
2018-11-23T23:42:34.501Z,-2.40
2018-11-23T23:45:02.638Z,-2.70
2018-11-23T23:47:30.769Z,-2.90
2018-11-23T23:49:58.902Z,-2.90
2018-11-23T23:52:27.034Z,-2.90
2018-11-23T23:54:55.153Z,-2.90
2018-11-23T23:57:23.281Z,-3.00
2018-11-23T23:59:51.405Z,-2.60
